Time;durP1;ratioP1;P1;durP2;ratioP2;P2;SDS_P1;SDS_P2;PMS_P1;PMS_P2;Temp;Humidity;BMP_temperature;BMP_pressure;BME280_temperature;BME280_humidity;BME280_pressure;Samples;Min_cycle;Max_cycle;Signal;HPM_P1;HPM_P2
2021/12/21 00:01:37;;;;;;;45.00;20.27;;;;;;;;;;5023573;28;20055;-41
2021/12/21 00:04:04;;;;;;;39.97;18.00;;;;;;;;;;5021802;28;20052;-41
2021/12/21 00:06:30;;;;;;;40.47;18.48;;;;;;;;;;5019935;28;20033;-41
2021/12/21 00:08:56;;;;;;;41.72;19.27;;;;;;;;;;5021031;28;20053;-41
2021/12/21 00:11:22;;;;;;;36.88;18.83;;;;;;;;;;5016927;28;20018;-41
2021/12/21 00:16:41;;;;;;;39.38;17.98;;;;;;;;;;5023902;28;20120;-41
2021/12/21 00:19:20;;;;;;;49.10;21.33;;;;;;;;;;5019124;28;20048;-41
2021/12/21 00:21:53;;;;;;;41.70;21.23;;;;;;;;;;5022105;28;20042;-41
2021/12/21 00:24:22;;;;;;;49.85;21.02;;;;;;;;;;5015818;28;20030;-41
2021/12/21 00:26:48;;;;;;;46.80;18.73;;;;;;;;;;5016664;28;20054;-41
2021/12/21 00:29:14;;;;;;;41.35;20.65;;;;;;;;;;5017193;28;20508;-41
2021/12/21 00:31:40;;;;;;;42.33;21.10;;;;;;;;;;5019295;28;20037;-41
2021/12/21 00:34:07;;;;;;;49.67;21.10;;;;;;;;;;5015184;28;20366;-41
2021/12/21 00:36:34;;;;;;;44.65;20.45;;;;;;;;;;5020519;28;20114;-41
2021/12/21 00:39:04;;;;;;;58.13;23.83;;;;;;;;;;5019686;28;20057;-41
2021/12/21 00:41:31;;;;;;;47.35;23.88;;;;;;;;;;5017590;28;20021;-40
2021/12/21 00:43:57;;;;;;;56.10;23.42;;;;;;;;;;5019439;28;20029;-41
2021/12/21 00:46:23;;;;;;;54.63;21.77;;;;;;;;;;5018073;28;20105;-41
2021/12/21 00:48:55;;;;;;;46.75;19.77;;;;;;;;;;5020407;28;20028;-41
2021/12/21 00:51:23;;;;;;;54.22;22.80;;;;;;;;;;5018470;28;20073;-41
2021/12/21 00:53:49;;;;;;;56.92;22.80;;;;;;;;;;5016787;28;20499;-41
2021/12/21 00:56:16;;;;;;;50.92;21.05;;;;;;;;;;5016014;28;20476;-41
2021/12/21 00:58:42;;;;;;;47.88;22.05;;;;;;;;;;5017221;28;20057;-39
2021/12/21 01:01:08;;;;;;;47.13;21.42;;;;;;;;;;5018928;28;20427;-40
2021/12/21 01:03:36;;;;;;;59.83;22.50;;;;;;;;;;5015631;28;20083;-40
2021/12/21 01:09:24;;;;;;;45.55;20.80;;;;;;;;;;4973160;28;20485;-43
2021/12/21 01:11:55;;;;;;;55.42;23.20;;;;;;;;;;5013307;28;20129;-40
2021/12/21 01:20:13;;;;;;;48.88;21.10;;;;;;;;;;5005133;28;20148;-40
2021/12/21 01:23:08;;;;;;;46.00;20.33;;;;;;;;;;5021654;28;20392;-40
2021/12/21 01:31:02;;;;;;;;;;;;;;;;;;5015969;28;20034;-42
2021/12/21 01:36:36;;;;;;;50.35;18.42;;;;;;;;;;4980741;28;20121;-42
2021/12/21 01:39:40;;;;;;;47.28;18.35;;;;;;;;;;5018040;28;20034;-43
2021/12/21 01:42:06;;;;;;;49.17;18.05;;;;;;;;;;5017931;28;20091;-42
2021/12/21 01:49:33;;;;;;;44.25;18.52;;;;;;;;;;5017493;28;20021;-42
2021/12/21 01:50:03;;;;;;;35.00;15.47;;;;;;;;;;5017945;28;20090;-42
2021/12/21 01:52:29;;;;;;;43.60;17.27;;;;;;;;;;5015771;28;20264;-42
2021/12/21 01:54:55;;;;;;;35.75;16.13;;;;;;;;;;5015150;28;20136;-42
2021/12/21 01:57:22;;;;;;;41.38;16.58;;;;;;;;;;5015273;28;20033;-42
2021/12/21 01:59:48;;;;;;;38.72;17.05;;;;;;;;;;5019082;28;20064;-42
2021/12/21 02:02:15;;;;;;;39.88;16.35;;;;;;;;;;5014175;28;20053;-42
2021/12/21 02:04:41;;;;;;;39.90;15.40;;;;;;;;;;5016391;28;20021;-42
2021/12/21 02:07:08;;;;;;;29.77;13.27;;;;;;;;;;5018233;28;20061;-42
2021/12/21 02:09:37;;;;;;;32.30;13.23;;;;;;;;;;5017805;28;20025;-42
2021/12/21 02:12:05;;;;;;;29.35;13.82;;;;;;;;;;5014375;28;20021;-42
2021/12/21 02:14:31;;;;;;;30.63;11.20;;;;;;;;;;5015824;28;20084;-42
2021/12/21 02:17:27;;;;;;;26.42;12.63;;;;;;;;;;5014330;28;20030;-42
2021/12/21 02:20:21;;;;;;;26.65;11.30;;;;;;;;;;5019621;28;20049;-42
2021/12/21 02:22:55;;;;;;;25.98;12.20;;;;;;;;;;5017355;28;20036;-42
2021/12/21 02:28:10;;;;;;;21.10;11.70;;;;;;;;;;5019006;28;20120;-42
2021/12/21 02:30:37;;;;;;;26.13;11.57;;;;;;;;;;5017640;28;20033;-42
2021/12/21 02:33:04;;;;;;;20.25;10.85;;;;;;;;;;5018471;28;20428;-42
2021/12/21 02:35:30;;;;;;;28.60;11.50;;;;;;;;;;5017961;28;20029;-42
2021/12/21 02:37:56;;;;;;;25.65;9.98;;;;;;;;;;5015756;28;20431;-41
2021/12/21 02:40:22;;;;;;;23.42;9.88;;;;;;;;;;5021138;28;20137;-42
2021/12/21 02:42:48;;;;;;;20.02;9.57;;;;;;;;;;5013726;28;20086;-42
2021/12/21 02:45:14;;;;;;;19.15;9.73;;;;;;;;;;5011528;28;20029;-42
2021/12/21 02:47:40;;;;;;;26.23;11.25;;;;;;;;;;5015719;28;20068;-42
2021/12/21 02:50:07;;;;;;;18.40;9.98;;;;;;;;;;5017222;28;20049;-41
2021/12/21 02:52:35;;;;;;;24.58;10.80;;;;;;;;;;5015987;28;20040;-42
2021/12/21 02:55:03;;;;;;;24.08;10.20;;;;;;;;;;5017663;28;20047;-42
2021/12/21 02:57:29;;;;;;;22.05;9.82;;;;;;;;;;5011837;28;20069;-42
2021/12/21 02:59:55;;;;;;;24.83;10.32;;;;;;;;;;5017775;28;20084;-42
2021/12/21 03:02:21;;;;;;;23.17;9.15;;;;;;;;;;5017983;28;20099;-42
2021/12/21 03:04:49;;;;;;;19.77;9.45;;;;;;;;;;5018178;28;20484;-42
2021/12/21 03:10:00;;;;;;;20.90;10.30;;;;;;;;;;5016274;28;20608;-42
2021/12/21 03:15:11;;;;;;;19.50;8.98;;;;;;;;;;5013581;28;20037;-42
2021/12/21 03:17:37;;;;;;;19.63;9.63;;;;;;;;;;5017033;28;20033;-42
2021/12/21 03:20:03;;;;;;;22.10;9.15;;;;;;;;;;5016564;28;20029;-42
2021/12/21 03:22:29;;;;;;;19.52;8.15;;;;;;;;;;5015149;28;20069;-42
2021/12/21 03:24:55;;;;;;;19.65;8.63;;;;;;;;;;5017967;28;20428;-42
2021/12/21 03:27:22;;;;;;;25.60;10.43;;;;;;;;;;5020329;28;20033;-42
2021/12/21 03:29:48;;;;;;;16.98;7.90;;;;;;;;;;5023135;28;20460;-42
2021/12/21 03:32:14;;;;;;;16.35;7.95;;;;;;;;;;5015689;28;20057;-43
2021/12/21 03:34:40;;;;;;;16.98;8.07;;;;;;;;;;5020258;28;20022;-42
2021/12/21 03:37:12;;;;;;;13.30;6.85;;;;;;;;;;5022025;28;20068;-42
2021/12/21 03:39:38;;;;;;;17.73;7.93;;;;;;;;;;5019043;28;20393;-42
2021/12/21 03:42:05;;;;;;;12.88;6.85;;;;;;;;;;5017264;28;20033;-42
2021/12/21 03:44:31;;;;;;;22.55;8.30;;;;;;;;;;5020835;28;20029;-42
2021/12/21 03:46:57;;;;;;;13.75;7.20;;;;;;;;;;5020661;28;20048;-42
2021/12/21 03:52:01;;;;;;;14.02;6.60;;;;;;;;;;5018758;28;20058;-42
2021/12/21 03:54:27;;;;;;;17.27;8.63;;;;;;;;;;5017169;28;20396;-42
2021/12/21 03:56:53;;;;;;;15.13;7.28;;;;;;;;;;5020895;28;20444;-42
2021/12/21 03:59:20;;;;;;;15.65;6.75;;;;;;;;;;5012095;28;20473;-42
2021/12/21 04:01:46;;;;;;;16.70;7.38;;;;;;;;;;5019394;28;20121;-42
2021/12/21 04:04:12;;;;;;;11.30;6.15;;;;;;;;;;5022774;28;20029;-42
2021/12/21 04:06:38;;;;;;;17.35;6.53;;;;;;;;;;5021935;28;20370;-42
2021/12/21 04:09:05;;;;;;;13.93;6.43;;;;;;;;;;5025731;28;20021;-42
2021/12/21 04:11:32;;;;;;;14.75;6.75;;;;;;;;;;5042073;28;20024;-42
2021/12/21 04:13:58;;;;;;;13.70;5.97;;;;;;;;;;5032983;28;20025;-42
2021/12/21 04:16:24;;;;;;;12.15;6.15;;;;;;;;;;5031046;28;20021;-42
2021/12/21 04:18:50;;;;;;;15.60;6.72;;;;;;;;;;5031929;28;20468;-42
2021/12/21 04:21:16;;;;;;;13.05;6.90;;;;;;;;;;5033966;28;20029;-42
2021/12/21 04:23:43;;;;;;;16.10;7.95;;;;;;;;;;5032269;28;20057;-42
2021/12/21 04:26:11;;;;;;;12.65;7.15;;;;;;;;;;5031760;28;20119;-42
2021/12/21 04:28:37;;;;;;;17.65;6.32;;;;;;;;;;5032254;28;20022;-42
2021/12/21 04:31:04;;;;;;;13.93;6.55;;;;;;;;;;5031556;28;20461;-42
2021/12/21 04:33:30;;;;;;;11.80;6.53;;;;;;;;;;5013772;28;20479;-42
2021/12/21 04:35:56;;;;;;;14.65;7.03;;;;;;;;;;5031741;28;20025;-42
2021/12/21 04:38:24;;;;;;;19.55;6.80;;;;;;;;;;5031369;28;20087;-42
2021/12/21 04:40:56;;;;;;;14.45;6.47;;;;;;;;;;5031794;28;20148;-42
2021/12/21 04:43:22;;;;;;;14.75;6.88;;;;;;;;;;5026272;28;20013;-41
2021/12/21 04:45:48;;;;;;;15.07;6.90;;;;;;;;;;5031294;28;20072;-42
2021/12/21 04:48:14;;;;;;;29.58;7.43;;;;;;;;;;5032604;28;20034;-42
2021/12/21 04:50:40;;;;;;;11.68;6.35;;;;;;;;;;5040037;28;20590;-42
2021/12/21 04:53:06;;;;;;;13.23;6.68;;;;;;;;;;5032488;28;20522;-42
2021/12/21 04:55:32;;;;;;;16.73;6.13;;;;;;;;;;5032393;28;20127;-42
2021/12/21 04:57:59;;;;;;;19.50;7.53;;;;;;;;;;5031062;28;20025;-42
2021/12/21 05:00:25;;;;;;;15.98;7.63;;;;;;;;;;5030552;28;20036;-42
2021/12/21 05:02:51;;;;;;;15.48;6.72;;;;;;;;;;5030010;28;20025;-42
2021/12/21 05:05:17;;;;;;;13.70;7.30;;;;;;;;;;5030967;28;20052;-42
2021/12/21 05:07:48;;;;;;;16.13;7.18;;;;;;;;;;5029675;28;20145;-42
2021/12/21 05:10:14;;;;;;;12.93;6.75;;;;;;;;;;5030621;28;20354;-42
2021/12/21 05:12:40;;;;;;;13.38;6.68;;;;;;;;;;5030288;28;20026;-42
2021/12/21 05:15:07;;;;;;;13.38;5.88;;;;;;;;;;5030586;28;20087;-42
2021/12/21 05:17:33;;;;;;;12.90;6.53;;;;;;;;;;5031153;28;20125;-42
2021/12/21 05:19:59;;;;;;;16.13;7.28;;;;;;;;;;5031435;28;20060;-42
2021/12/21 05:22:26;;;;;;;15.90;6.28;;;;;;;;;;5030865;28;20033;-43
2021/12/21 05:24:52;;;;;;;15.93;6.22;;;;;;;;;;5031258;28;20072;-42
2021/12/21 05:27:19;;;;;;;13.43;6.30;;;;;;;;;;5030385;28;20464;-42
2021/12/21 05:29:45;;;;;;;13.57;6.68;;;;;;;;;;5030646;28;20492;-42
2021/12/21 05:32:12;;;;;;;13.45;6.72;;;;;;;;;;5030114;28;20028;-42
2021/12/21 05:34:38;;;;;;;11.88;6.07;;;;;;;;;;5030693;28;20021;-42
2021/12/21 05:37:07;;;;;;;21.52;6.53;;;;;;;;;;5028755;28;20037;-42
2021/12/21 05:39:42;;;;;;;16.45;6.38;;;;;;;;;;5042596;22;20096;-37
2021/12/21 05:42:09;;;;;;;13.70;8.15;;;;;;;;;;5031216;28;20068;-38
2021/12/21 05:44:35;;;;;;;27.20;7.35;;;;;;;;;;5030672;28;20021;-38
2021/12/21 05:47:01;;;;;;;13.52;5.93;;;;;;;;;;5031246;28;20040;-38
2021/12/21 05:49:27;;;;;;;14.45;6.43;;;;;;;;;;5027243;28;20018;-37
2021/12/21 05:51:54;;;;;;;20.90;7.90;;;;;;;;;;5012438;28;20398;-37
2021/12/21 05:54:21;;;;;;;10.02;6.78;;;;;;;;;;5012062;28;20018;-37
2021/12/21 05:56:47;;;;;;;15.55;7.03;;;;;;;;;;5011519;28;20026;-39
2021/12/21 05:59:14;;;;;;;17.17;6.38;;;;;;;;;;5011287;28;20104;-37
2021/12/21 06:01:40;;;;;;;10.60;5.80;;;;;;;;;;5012402;28;20022;-37
2021/12/21 06:04:06;;;;;;;17.27;6.97;;;;;;;;;;5011748;28;20112;-37
2021/12/21 06:06:32;;;;;;;17.80;7.90;;;;;;;;;;5011810;28;20061;-38
2021/12/21 06:09:02;;;;;;;22.98;7.28;;;;;;;;;;5011534;28;20018;-37
2021/12/21 06:11:29;;;;;;;15.52;7.85;;;;;;;;;;5011566;28;20388;-37
2021/12/21 06:27:04;;;;;;;13.90;6.60;;;;;;;;;;5011134;28;20003;-38
2021/12/21 06:29:30;;;;;;;14.10;7.00;;;;;;;;;;5011335;28;20053;-38
2021/12/21 06:31:56;;;;;;;11.77;6.38;;;;;;;;;;5012108;28;20105;-37
2021/12/21 06:34:22;;;;;;;16.02;7.25;;;;;;;;;;5011568;28;20026;-38
2021/12/21 06:36:48;;;;;;;15.45;7.97;;;;;;;;;;5011778;28;20034;-38
2021/12/21 06:39:15;;;;;;;14.13;6.40;;;;;;;;;;5018161;28;20068;-40
2021/12/21 06:41:41;;;;;;;15.05;8.20;;;;;;;;;;5015311;28;20060;-39
2021/12/21 06:44:09;;;;;;;18.17;7.75;;;;;;;;;;5002576;28;20040;-40
2021/12/21 06:46:54;;;;;;;18.05;7.28;;;;;;;;;;5002589;28;20068;-38
2021/12/21 06:52:05;;;;;;;17.80;7.82;;;;;;;;;;5000449;28;20041;-36
2021/12/21 06:54:31;;;;;;;26.35;8.35;;;;;;;;;;5002723;28;20114;-37
2021/12/21 06:56:57;;;;;;;19.95;8.70;;;;;;;;;;4995512;28;20022;-37
2021/12/21 06:59:23;;;;;;;21.63;9.70;;;;;;;;;;5003788;28;20034;-37
2021/12/21 07:01:49;;;;;;;20.58;8.02;;;;;;;;;;4999791;28;20018;-36
2021/12/21 07:04:19;;;;;;;21.20;9.45;;;;;;;;;;5002007;28;20034;-38
2021/12/21 07:06:46;;;;;;;20.15;7.93;;;;;;;;;;5001637;28;20400;-38
2021/12/21 07:09:21;;;;;;;21.27;9.43;;;;;;;;;;4998316;28;20489;-37
2021/12/21 07:11:55;;;;;;;27.90;8.93;;;;;;;;;;5007388;28;20033;-37
2021/12/21 07:19:51;;;;;;;17.85;8.18;;;;;;;;;;4998944;28;20165;-37
2021/12/21 07:22:17;;;;;;;17.95;8.88;;;;;;;;;;5004707;28;20046;-37
2021/12/21 07:24:44;;;;;;;17.95;8.38;;;;;;;;;;5007052;28;20743;-37
2021/12/21 07:27:10;;;;;;;18.88;7.50;;;;;;;;;;4999631;28;20130;-41
2021/12/21 07:29:36;;;;;;;12.90;7.38;;;;;;;;;;5004767;28;20045;-39
2021/12/21 07:32:02;;;;;;;16.80;7.60;;;;;;;;;;5003248;28;20042;-38
2021/12/21 07:34:28;;;;;;;18.45;7.80;;;;;;;;;;5006553;28;20018;-37
2021/12/21 07:36:54;;;;;;;16.23;8.63;;;;;;;;;;5006542;28;20087;-37
2021/12/21 07:39:20;;;;;;;17.73;8.88;;;;;;;;;;5005177;28;20019;-37
2021/12/21 07:41:47;;;;;;;17.05;7.75;;;;;;;;;;5010819;28;20034;-37
2021/12/21 07:44:13;;;;;;;22.13;7.43;;;;;;;;;;5006792;28;20105;-37
2021/12/21 07:46:40;;;;;;;14.65;6.85;;;;;;;;;;5001960;28;20022;-38
2021/12/21 07:49:06;;;;;;;18.95;7.70;;;;;;;;;;4999328;28;20028;-37
2021/12/21 07:51:32;;;;;;;15.07;7.18;;;;;;;;;;5007880;28;20054;-37
2021/12/21 07:53:58;;;;;;;13.80;6.90;;;;;;;;;;5008719;28;20021;-37
2021/12/21 07:56:25;;;;;;;16.20;7.20;;;;;;;;;;5013916;28;20030;-37
2021/12/21 07:58:51;;;;;;;16.92;7.93;;;;;;;;;;5011548;28;20116;-38
2021/12/21 08:01:17;;;;;;;12.68;6.47;;;;;;;;;;5012755;28;20078;-42
2021/12/21 08:03:43;;;;;;;14.45;7.55;;;;;;;;;;5025534;28;20029;-38
2021/12/21 08:06:12;;;;;;;14.00;6.93;;;;;;;;;;5014142;28;20033;-38
2021/12/21 08:08:42;;;;;;;15.38;7.35;;;;;;;;;;5014387;28;20071;-40
2021/12/21 08:13:40;;;;;;;19.23;8.18;;;;;;;;;;5012006;28;20061;-40
2021/12/21 08:16:07;;;;;;;14.25;7.00;;;;;;;;;;4997774;28;20493;-37
2021/12/21 08:18:33;;;;;;;19.55;7.75;;;;;;;;;;5012557;28;20069;-37
2021/12/21 08:21:03;;;;;;;19.42;8.77;;;;;;;;;;5004433;28;20026;-39
2021/12/21 08:23:29;;;;;;;15.30;8.48;;;;;;;;;;5004311;28;20101;-41
2021/12/21 08:25:56;;;;;;;15.57;8.80;;;;;;;;;;5008873;28;20062;-37
2021/12/21 08:28:22;;;;;;;13.20;6.78;;;;;;;;;;5010990;28;20049;-36
2021/12/21 08:30:52;;;;;;;15.98;7.72;;;;;;;;;;5009141;28;20135;-40
2021/12/21 08:33:23;;;;;;;19.90;7.70;;;;;;;;;;5010687;28;20034;-38
2021/12/21 08:35:50;;;;;;;18.75;8.65;;;;;;;;;;5012027;28;20033;-40
2021/12/21 08:38:18;;;;;;;20.73;8.32;;;;;;;;;;5011250;28;20087;-39
2021/12/21 08:40:49;;;;;;;13.98;7.90;;;;;;;;;;5009672;28;20034;-41
2021/12/21 08:43:16;;;;;;;16.50;8.10;;;;;;;;;;5011368;28;20436;-36
2021/12/21 08:45:45;;;;;;;14.38;7.78;;;;;;;;;;5012277;28;20034;-39
2021/12/21 08:48:12;;;;;;;20.95;7.68;;;;;;;;;;5010617;28;20385;-39
2021/12/21 08:50:38;;;;;;;12.70;7.30;;;;;;;;;;5007916;28;20025;-37
2021/12/21 08:53:05;;;;;;;16.88;9.20;;;;;;;;;;5010398;28;20026;-40
2021/12/21 08:55:32;;;;;;;17.52;9.73;;;;;;;;;;5007842;28;20384;-37
2021/12/21 08:58:01;;;;;;;17.77;9.90;;;;;;;;;;5010518;28;20665;-36
2021/12/21 09:00:27;;;;;;;19.63;9.23;;;;;;;;;;5021679;28;20056;-41
2021/12/21 09:02:54;;;;;;;21.70;10.90;;;;;;;;;;5014067;28;20038;-39
2021/12/21 09:05:26;;;;;;;31.25;12.90;;;;;;;;;;5012225;28;20026;-40
2021/12/21 09:07:52;;;;;;;27.27;12.75;;;;;;;;;;5009854;28;20097;-39
2021/12/21 09:10:19;;;;;;;22.50;11.18;;;;;;;;;;5011451;28;20029;-40
2021/12/21 09:12:45;;;;;;;23.42;11.05;;;;;;;;;;5010847;28;20049;-39
2021/12/21 09:15:12;;;;;;;28.77;14.73;;;;;;;;;;5011950;28;20083;-39
2021/12/21 09:17:40;;;;;;;31.23;14.70;;;;;;;;;;5012048;28;20026;-41
2021/12/21 09:20:07;;;;;;;28.75;14.70;;;;;;;;;;5011413;28;20018;-40
2021/12/21 09:22:32;;;;;;;32.38;15.05;;;;;;;;;;5009708;28;20053;-40
2021/12/21 09:24:59;;;;;;;30.88;15.38;;;;;;;;;;5011317;28;20057;-41
2021/12/21 09:27:25;;;;;;;28.75;15.73;;;;;;;;;;5011684;28;20026;-41
2021/12/21 09:29:51;;;;;;;33.75;15.52;;;;;;;;;;5011239;28;20058;-39
2021/12/21 09:32:18;;;;;;;39.47;18.25;;;;;;;;;;5011501;28;20033;-38
2021/12/21 09:34:45;;;;;;;44.08;19.75;;;;;;;;;;5011079;28;20034;-39
2021/12/21 09:37:15;;;;;;;41.35;19.63;;;;;;;;;;5006922;28;20504;-39
2021/12/21 09:39:45;;;;;;;44.78;20.38;;;;;;;;;;5008024;28;20045;-38
2021/12/21 09:42:13;;;;;;;40.15;19.15;;;;;;;;;;5002372;28;20038;-39
2021/12/21 09:44:39;;;;;;;37.15;17.33;;;;;;;;;;5004923;28;20463;-40
2021/12/21 09:47:08;;;;;;;34.08;17.95;;;;;;;;;;5005625;28;20141;-39
2021/12/21 09:49:34;;;;;;;43.13;18.45;;;;;;;;;;5004470;28;20026;-40
2021/12/21 09:52:00;;;;;;;30.13;14.90;;;;;;;;;;5006170;28;20033;-39
2021/12/21 09:54:27;;;;;;;32.60;14.63;;;;;;;;;;5004678;28;20065;-41
2021/12/21 09:56:52;;;;;;;36.30;14.80;;;;;;;;;;5006717;28;20054;-40
2021/12/21 09:59:18;;;;;;;31.85;16.67;;;;;;;;;;5005706;28;20074;-40
2021/12/21 10:01:45;;;;;;;32.60;15.10;;;;;;;;;;5006831;28;20034;-40
2021/12/21 10:04:11;;;;;;;32.13;16.00;;;;;;;;;;5006086;28;20623;-41
2021/12/21 10:06:48;;;;;;;30.13;15.70;;;;;;;;;;5006738;28;20473;-40
2021/12/21 10:09:15;;;;;;;27.52;14.88;;;;;;;;;;5005958;28;20029;-39
2021/12/21 10:11:42;;;;;;;32.67;15.13;;;;;;;;;;5006636;28;20045;-38
2021/12/21 10:14:08;;;;;;;32.90;15.05;;;;;;;;;;5006555;28;20041;-39
2021/12/21 10:16:34;;;;;;;32.40;15.75;;;;;;;;;;5004318;28;20100;-39
2021/12/21 10:19:01;;;;;;;31.23;15.98;;;;;;;;;;5006000;28;20542;-39
2021/12/21 10:21:27;;;;;;;29.92;15.35;;;;;;;;;;5005235;28;20026;-39
2021/12/21 10:23:54;;;;;;;34.25;15.30;;;;;;;;;;5005602;28;20066;-37
2021/12/21 10:26:25;;;;;;;28.25;15.15;;;;;;;;;;5006918;28;20026;-39
2021/12/21 10:28:59;;;;;;;26.27;14.27;;;;;;;;;;5006564;28;20018;-39
2021/12/21 10:31:27;;;;;;;31.60;14.55;;;;;;;;;;5004826;28;20026;-39
2021/12/21 10:33:54;;;;;;;25.95;14.52;;;;;;;;;;5005012;28;20026;-38
2021/12/21 10:36:20;;;;;;;29.88;14.82;;;;;;;;;;5004568;28;20034;-40
2021/12/21 10:38:52;;;;;;;30.60;14.30;;;;;;;;;;5005571;28;20030;-40
2021/12/21 10:41:29;;;;;;;32.05;14.52;;;;;;;;;;5011416;28;20410;-40
2021/12/21 10:43:59;;;;;;;25.95;14.02;;;;;;;;;;5011488;28;20037;-42
2021/12/21 10:46:29;;;;;;;25.92;14.60;;;;;;;;;;5005516;28;20076;-40
2021/12/21 10:49:24;;;;;;;25.85;13.68;;;;;;;;;;5005032;28;20053;-40
2021/12/21 10:51:56;;;;;;;27.92;14.77;;;;;;;;;;4992629;28;20113;-40
2021/12/21 10:54:26;;;;;;;31.00;15.15;;;;;;;;;;5008082;28;20515;-40
2021/12/21 10:57:06;;;;;;;30.17;15.70;;;;;;;;;;5013373;28;20026;-41
2021/12/21 10:59:33;;;;;;;28.20;15.52;;;;;;;;;;5011306;28;20025;-39
2021/12/21 11:02:11;;;;;;;25.27;15.48;;;;;;;;;;5013980;28;20133;-38
2021/12/21 11:04:41;;;;;;;25.00;15.10;;;;;;;;;;5015545;28;20061;-38
2021/12/21 11:07:34;;;;;;;25.98;15.93;;;;;;;;;;5013186;28;20033;-39
2021/12/21 11:10:00;;;;;;;28.60;16.50;;;;;;;;;;5013292;28;20050;-39
2021/12/21 11:12:28;;;;;;;31.75;18.88;;;;;;;;;;5010656;28;20030;-40
2021/12/21 11:14:56;;;;;;;35.97;18.35;;;;;;;;;;5013924;28;20026;-40
2021/12/21 11:17:22;;;;;;;33.83;18.85;;;;;;;;;;5011039;28;20048;-40
2021/12/21 11:19:52;;;;;;;31.20;18.92;;;;;;;;;;5010760;28;20037;-40
2021/12/21 11:22:18;;;;;;;27.00;16.90;;;;;;;;;;5013346;28;20084;-41
2021/12/21 11:24:46;;;;;;;25.85;15.07;;;;;;;;;;5010864;28;20037;-39
2021/12/21 11:27:14;;;;;;;35.72;17.40;;;;;;;;;;5011985;28;20045;-38
2021/12/21 11:29:41;;;;;;;28.73;16.23;;;;;;;;;;5012970;28;20026;-40
2021/12/21 11:32:08;;;;;;;29.55;15.98;;;;;;;;;;5014545;28;20033;-40
2021/12/21 11:34:36;;;;;;;22.95;14.57;;;;;;;;;;5014296;28;20137;-40
2021/12/21 11:37:21;;;;;;;27.52;13.82;;;;;;;;;;5015470;28;20021;-38
2021/12/21 11:39:47;;;;;;;27.35;14.63;;;;;;;;;;5013078;28;20049;-40
2021/12/21 11:42:35;;;;;;;23.98;13.50;;;;;;;;;;5035756;22;20064;-40
2021/12/21 11:45:04;;;;;;;25.00;14.10;;;;;;;;;;5025956;28;20053;-39
2021/12/21 11:47:49;;;;;;;28.98;13.88;;;;;;;;;;5027618;28;20030;-39
2021/12/21 11:50:15;;;;;;;29.88;12.93;;;;;;;;;;5028587;28;20033;-39
2021/12/21 11:52:46;;;;;;;20.83;12.77;;;;;;;;;;5029481;28;20053;-39
2021/12/21 11:55:13;;;;;;;29.58;14.27;;;;;;;;;;5028497;28;20163;-38
2021/12/21 11:57:43;;;;;;;26.92;13.48;;;;;;;;;;5026838;28;20022;-39
2021/12/21 12:00:11;;;;;;;24.38;13.00;;;;;;;;;;5028182;28;20096;-39
2021/12/21 12:02:38;;;;;;;27.17;12.27;;;;;;;;;;5028247;28;20061;-42
2021/12/21 12:05:14;;;;;;;24.20;12.65;;;;;;;;;;5031910;28;20032;-38
2021/12/21 12:07:40;;;;;;;24.27;13.25;;;;;;;;;;5027958;28;20595;-38
2021/12/21 12:10:08;;;;;;;40.25;14.43;;;;;;;;;;5035160;28;20064;-38
2021/12/21 12:12:34;;;;;;;31.95;15.27;;;;;;;;;;5034089;28;20081;-38
2021/12/21 12:15:01;;;;;;;24.42;13.10;;;;;;;;;;5033071;28;20562;-39
2021/12/21 12:17:28;;;;;;;29.05;13.77;;;;;;;;;;5034122;28;20036;-38
2021/12/21 12:20:05;;;;;;;29.52;14.57;;;;;;;;;;5032003;28;20021;-40
2021/12/21 12:22:36;;;;;;;28.52;14.38;;;;;;;;;;5031692;28;20101;-39
2021/12/21 12:25:02;;;;;;;25.02;13.82;;;;;;;;;;5037168;28;20060;-38
2021/12/21 12:27:29;;;;;;;23.00;13.63;;;;;;;;;;5048557;28;20033;-39
2021/12/21 12:30:08;;;;;;;22.90;12.25;;;;;;;;;;5031692;28;20411;-41
2021/12/21 12:32:38;;;;;;;25.42;10.88;;;;;;;;;;5031286;28;20030;-39
2021/12/21 12:35:06;;;;;;;25.55;11.23;;;;;;;;;;5031730;28;20126;-39
2021/12/21 12:37:33;;;;;;;25.77;11.82;;;;;;;;;;5032883;28;20187;-39
2021/12/21 12:40:09;;;;;;;19.08;10.82;;;;;;;;;;5031596;28;20075;-39
2021/12/21 12:42:35;;;;;;;19.48;9.68;;;;;;;;;;5032055;28;20053;-40
2021/12/21 12:45:22;;;;;;;18.25;9.65;;;;;;;;;;5032637;28;20045;-37
2021/12/21 12:47:52;;;;;;;12.85;8.63;;;;;;;;;;5032343;28;20463;-39
2021/12/21 12:50:22;;;;;;;21.35;8.98;;;;;;;;;;5031821;28;20036;-39
2021/12/21 12:52:53;;;;;;;18.52;8.10;;;;;;;;;;5023926;28;20032;-41
2021/12/21 12:55:20;;;;;;;14.10;7.13;;;;;;;;;;5029433;28;20503;-39
2021/12/21 12:57:50;;;;;;;18.20;7.10;;;;;;;;;;5029880;28;20039;-39
2021/12/21 13:00:27;;;;;;;17.48;7.72;;;;;;;;;;5033855;28;20032;-40
2021/12/21 13:03:01;;;;;;;16.20;8.10;;;;;;;;;;5030886;28;20022;-40
2021/12/21 13:05:34;;;;;;;19.60;7.85;;;;;;;;;;5033101;28;20036;-40
2021/12/21 13:08:10;;;;;;;18.33;7.43;;;;;;;;;;5040380;28;20541;-39
2021/12/21 13:10:37;;;;;;;15.48;8.13;;;;;;;;;;5032040;28;20580;-39
2021/12/21 13:13:03;;;;;;;18.65;8.57;;;;;;;;;;5031893;28;20248;-39
2021/12/21 13:15:36;;;;;;;14.45;8.93;;;;;;;;;;5036424;28;20033;-41
2021/12/21 13:18:04;;;;;;;23.38;10.27;;;;;;;;;;5043493;28;20029;-40
2021/12/21 13:20:31;;;;;;;16.63;9.95;;;;;;;;;;5041372;28;20051;-41
2021/12/21 13:22:57;;;;;;;15.70;9.40;;;;;;;;;;5044052;28;20647;-39
2021/12/21 13:25:23;;;;;;;16.92;10.15;;;;;;;;;;5031823;28;20117;-39
2021/12/21 13:27:49;;;;;;;20.08;10.57;;;;;;;;;;5032293;28;20456;-40
2021/12/21 13:30:18;;;;;;;20.10;10.52;;;;;;;;;;5031070;28;20030;-41
2021/12/21 13:32:44;;;;;;;21.48;11.00;;;;;;;;;;5043054;28;20112;-39
2021/12/21 13:35:15;;;;;;;24.27;11.90;;;;;;;;;;5038268;28;20041;-38
2021/12/21 13:37:41;;;;;;;18.13;10.27;;;;;;;;;;5039030;28;20025;-38
2021/12/21 13:40:07;;;;;;;22.42;12.43;;;;;;;;;;5035130;28;20412;-40
2021/12/21 13:42:33;;;;;;;20.73;10.93;;;;;;;;;;5030913;28;20053;-38
2021/12/21 13:45:01;;;;;;;22.63;12.82;;;;;;;;;;5036462;28;20420;-39
2021/12/21 13:47:32;;;;;;;20.70;11.32;;;;;;;;;;5036700;28;20503;-40
2021/12/21 13:50:04;;;;;;;22.27;12.13;;;;;;;;;;5032873;28;20029;-41
2021/12/21 13:52:38;;;;;;;33.65;12.25;;;;;;;;;;5026392;28;20055;-39
2021/12/21 13:55:05;;;;;;;24.05;12.05;;;;;;;;;;5034897;28;20029;-39
2021/12/21 13:57:33;;;;;;;23.63;12.27;;;;;;;;;;5032740;28;20021;-38
2021/12/21 13:59:59;;;;;;;27.98;13.23;;;;;;;;;;5030357;28;20033;-40
2021/12/21 14:02:36;;;;;;;21.15;12.27;;;;;;;;;;5028732;28;20491;-38
2021/12/21 14:05:05;;;;;;;24.15;12.27;;;;;;;;;;5033092;28;20029;-38
2021/12/21 14:07:33;;;;;;;25.52;13.05;;;;;;;;;;5031472;28;20024;-38
2021/12/21 14:10:10;;;;;;;25.70;12.18;;;;;;;;;;5039279;28;20025;-40
2021/12/21 14:12:36;;;;;;;29.63;13.32;;;;;;;;;;5033922;28;20082;-39
2021/12/21 14:15:02;;;;;;;23.38;13.10;;;;;;;;;;5035870;28;20033;-38
2021/12/21 14:17:29;;;;;;;21.73;12.45;;;;;;;;;;5027981;28;20029;-40
2021/12/21 14:19:59;;;;;;;23.88;13.40;;;;;;;;;;5027253;28;20136;-39
2021/12/21 14:22:25;;;;;;;24.95;13.02;;;;;;;;;;5036966;28;20083;-38
2021/12/21 14:24:51;;;;;;;31.77;14.63;;;;;;;;;;5028135;28;20532;-39
2021/12/21 14:27:19;;;;;;;28.25;13.40;;;;;;;;;;5036787;28;20124;-39
2021/12/21 14:29:45;;;;;;;29.08;14.18;;;;;;;;;;5034052;28;20029;-40
2021/12/21 14:34:46;;;;;;;28.20;13.25;;;;;;;;;;5038901;28;20118;-39
2021/12/21 14:37:14;;;;;;;30.02;14.82;;;;;;;;;;5025762;28;20461;-39
2021/12/21 14:39:42;;;;;;;32.95;16.08;;;;;;;;;;5032450;28;20088;-39
2021/12/21 14:42:09;;;;;;;27.45;14.45;;;;;;;;;;5027671;28;20052;-40
2021/12/21 14:44:43;;;;;;;26.23;15.20;;;;;;;;;;5022490;28;20121;-42
2021/12/21 14:47:11;;;;;;;28.92;14.82;;;;;;;;;;5028211;28;20434;-40
2021/12/21 14:49:53;;;;;;;30.83;16.08;;;;;;;;;;5028839;28;20390;-39
2021/12/21 14:53:02;;;;;;;33.83;16.70;;;;;;;;;;5020713;28;20545;-39
2021/12/21 14:55:11;;;;;;;28.35;14.40;;;;;;;;;;5019343;28;20523;-41
2021/12/21 14:57:59;;;;;;;31.50;15.63;;;;;;;;;;5037561;28;20060;-39
2021/12/21 15:00:27;;;;;;;28.88;15.43;;;;;;;;;;5021461;28;20362;-40
2021/12/21 15:02:54;;;;;;;31.27;16.73;;;;;;;;;;5028089;28;20593;-39
2021/12/21 15:05:20;;;;;;;37.40;16.33;;;;;;;;;;5029198;28;20038;-39
2021/12/21 15:07:47;;;;;;;34.08;15.90;;;;;;;;;;5028463;28;20502;-38
2021/12/21 15:10:14;;;;;;;29.02;16.15;;;;;;;;;;5037644;28;20485;-38
2021/12/21 15:12:41;;;;;;;29.90;16.67;;;;;;;;;;5020188;28;20037;-39
2021/12/21 15:15:07;;;;;;;31.25;15.57;;;;;;;;;;5016884;28;20601;-39
2021/12/21 15:17:33;;;;;;;29.80;16.30;;;;;;;;;;5014221;28;20112;-38
2021/12/21 15:20:00;;;;;;;28.02;15.60;;;;;;;;;;5019195;28;20025;-38
2021/12/21 15:22:26;;;;;;;30.58;15.48;;;;;;;;;;5019110;28;20521;-39
2021/12/21 15:24:52;;;;;;;32.92;16.10;;;;;;;;;;5027433;28;20112;-39
2021/12/21 15:27:18;;;;;;;35.80;17.23;;;;;;;;;;5024383;28;20082;-38
2021/12/21 15:29:44;;;;;;;29.33;16.73;;;;;;;;;;5016632;28;20080;-39
2021/12/21 15:32:13;;;;;;;31.80;16.00;;;;;;;;;;5023639;28;20349;-38